Time;durP1;ratioP1;P1;durP2;ratioP2;P2;SDS_P1;SDS_P2;PMS_P1;PMS_P2;Temp;Humidity;BMP_temperature;BMP_pressure;BME280_temperature;BME280_humidity;BME280_pressure;Samples;Min_cycle;Max_cycle;Signal;HPM_P1;HPM_P2
2022/06/13 00:01:39;;;;;;;5.85;1.45;;;;;;;12.88;100.00;101205.16;5053333;28;20402;-85
2022/06/13 00:04:07;;;;;;;5.28;1.10;;;;;;;12.73;100.00;101202.22;5040457;28;20617;-86
2022/06/13 00:06:35;;;;;;;8.18;1.80;;;;;;;13.02;100.00;101231.75;5040745;28;20045;-86
2022/06/13 00:09:05;;;;;;;3.47;1.20;;;;;;;12.81;100.00;101191.41;5054462;28;20083;-85
2022/06/13 00:11:32;;;;;;;6.03;1.10;;;;;;;13.28;100.00;101224.59;5054005;28;20051;-85
2022/06/13 00:13:59;;;;;;;4.00;1.17;;;;;;;13.17;100.00;101180.28;5048045;28;20049;-86
2022/06/13 00:16:26;;;;;;;5.38;1.52;;;;;;;13.84;100.00;101238.91;5052814;28;20124;-86
2022/06/13 00:18:53;;;;;;;8.43;1.50;;;;;;;13.93;100.00;101217.44;5052638;28;20041;-85
2022/06/13 00:21:23;;;;;;;6.50;1.40;;;;;;;13.85;100.00;101209.91;5053387;28;20053;-86
2022/06/13 00:23:50;;;;;;;4.70;1.20;;;;;;;14.13;100.00;101229.75;5045918;28;20053;-85
2022/06/13 00:26:22;;;;;;;5.15;1.55;;;;;;;14.15;99.68;101238.44;5053093;28;20559;-86
2022/06/13 00:28:51;;;;;;;6.75;1.30;;;;;;;14.03;99.07;101204.75;5052694;28;20052;-86
2022/06/13 00:31:18;;;;;;;7.57;1.52;;;;;;;14.05;99.46;101235.34;5052956;28;20052;-86
2022/06/13 00:33:45;;;;;;;7.57;1.58;;;;;;;13.78;100.00;101218.97;5052477;28;20067;-86
2022/06/13 00:36:12;;;;;;;6.90;1.83;;;;;;;13.83;100.00;101187.22;5054317;28;20053;-85
2022/06/13 00:38:39;;;;;;;8.90;1.90;;;;;;;14.17;99.94;101227.84;5051952;28;20082;-85
2022/06/13 00:41:11;;;;;;;11.20;1.92;;;;;;;14.02;98.80;101214.44;5051944;28;20055;-85
2022/06/13 00:43:40;;;;;;;7.60;1.40;;;;;;;14.01;98.97;101212.72;5051763;28;20120;-85
2022/06/13 00:46:22;;;;;;;6.43;1.65;;;;;;;14.34;97.74;101229.69;5052836;28;20048;-85
2022/06/13 00:48:54;;;;;;;8.23;2.03;;;;;;;14.18;97.62;101214.59;5051957;28;20407;-85
2022/06/13 00:51:21;;;;;;;4.55;1.10;;;;;;;14.31;95.91;101212.25;5052129;28;20056;-85
2022/06/13 00:53:50;;;;;;;6.43;1.40;;;;;;;14.30;95.25;101207.91;5053084;28;20044;-85
2022/06/13 00:56:21;;;;;;;5.63;1.38;;;;;;;14.63;96.05;101246.84;5053659;28;20045;-85
2022/06/13 00:58:59;;;;;;;6.88;1.52;;;;;;;14.22;97.99;101228.47;5052496;28;20051;-85
2022/06/13 01:01:31;;;;;;;5.80;1.45;;;;;;;14.19;96.62;101175.94;5038005;28;20047;-86
2022/06/13 01:04:02;;;;;;;5.30;1.40;;;;;;;14.38;94.64;101224.22;5052443;28;20053;-85
2022/06/13 01:06:32;;;;;;;5.43;1.77;;;;;;;14.40;94.81;101208.34;5057463;28;20058;-86
2022/06/13 01:09:03;;;;;;;8.70;1.40;;;;;;;14.58;94.72;101222.47;5061597;28;20435;-86
2022/06/13 01:11:30;;;;;;;9.93;1.60;;;;;;;14.67;91.23;101214.13;5051840;28;20057;-86
2022/06/13 01:14:00;;;;;;;6.30;1.48;;;;;;;14.98;91.71;101247.81;5051175;28;20048;-86
2022/06/13 01:16:36;;;;;;;4.90;1.40;;;;;;;14.85;91.54;101254.59;5051711;28;20064;-85
2022/06/13 01:19:42;;;;;;;2.50;1.02;;;;;;;14.94;90.87;101250.66;5051329;28;20465;-85
2022/06/13 01:22:45;;;;;;;10.13;1.85;;;;;;;14.37;93.17;101226.91;5024530;28;20048;-85
2022/06/13 01:25:43;;;;;;;7.65;1.42;;;;;;;14.71;92.42;101244.69;5052238;28;20053;-85
2022/06/13 01:28:37;;;;;;;6.40;1.33;;;;;;;14.59;90.44;101226.84;5060700;28;20551;-85
2022/06/13 01:31:15;;;;;;;5.03;1.13;;;;;;;14.50;90.24;101214.03;5051420;28;20509;-85
2022/06/13 01:34:03;;;;;;;4.05;1.17;;;;;;;14.61;92.07;101260.09;5049792;28;20040;-85
2022/06/13 01:36:46;;;;;;;10.85;1.90;;;;;;;14.10;95.37;101242.19;5047673;28;20057;-86
2022/06/13 01:39:18;;;;;;;5.10;1.30;;;;;;;14.55;93.14;101255.03;5050737;28;20053;-86
2022/06/13 01:42:04;;;;;;;7.15;1.73;;;;;;;14.11;96.17;101263.19;5050062;28;20051;-85
2022/06/13 01:44:39;;;;;;;5.97;1.40;;;;;;;13.94;100.00;101258.66;5049356;28;20715;-85
2022/06/13 01:47:11;;;;;;;7.88;1.30;;;;;;;13.85;100.00;101256.44;5051910;28;20056;-85
2022/06/13 01:50:16;;;;;;;4.78;1.40;;;;;;;14.00;99.25;101254.91;5051272;28;20056;-85
2022/06/13 01:53:08;;;;;;;6.15;1.42;;;;;;;14.01;99.15;101257.47;5009758;28;20060;-86
2022/06/13 01:55:46;;;;;;;7.75;1.70;;;;;;;14.08;98.62;101258.06;5049550;28;20040;-85
2022/06/13 01:58:41;;;;;;;6.13;1.55;;;;;;;13.94;99.32;101253.38;5044546;28;20045;-86
2022/06/13 02:01:34;;;;;;;4.82;1.60;;;;;;;13.94;100.00;101249.91;5047697;28;20055;-85
2022/06/13 02:04:25;;;;;;;4.18;1.20;;;;;;;14.18;97.02;101263.75;5042210;28;20140;-86
2022/06/13 02:07:09;;;;;;;6.50;1.63;;;;;;;13.73;97.15;101214.84;5056194;28;20048;-85
2022/06/13 02:09:50;;;;;;;6.45;1.75;;;;;;;13.60;100.00;101201.38;5051613;28;20049;-85
2022/06/13 02:12:20;;;;;;;6.13;1.58;;;;;;;13.78;100.00;101226.03;5048684;28;20055;-86
2022/06/13 02:14:54;;;;;;;6.63;1.70;;;;;;;14.02;100.00;101234.63;5047981;28;20045;-86
2022/06/13 02:17:26;;;;;;;6.43;1.73;;;;;;;13.90;100.00;101249.19;5050324;28;20055;-86
2022/06/13 02:20:00;;;;;;;8.43;1.50;;;;;;;14.08;100.00;101271.22;5050899;28;20052;-86
2022/06/13 02:22:41;;;;;;;4.55;1.25;;;;;;;14.22;100.00;101273.25;5037637;28;20567;-86
2022/06/13 02:25:12;;;;;;;5.40;1.80;;;;;;;13.89;100.00;101244.84;5049891;28;20052;-85
2022/06/13 02:27:41;;;;;;;7.13;1.98;;;;;;;13.78;100.00;101223.41;5051696;28;20045;-86
2022/06/13 02:30:13;;;;;;;4.75;1.42;;;;;;;14.24;100.00;101264.34;5051630;28;20517;-86
2022/06/13 02:32:43;;;;;;;4.80;1.23;;;;;;;14.53;96.36;101269.22;5044190;28;20399;-83
2022/06/13 02:35:14;;;;;;;8.85;2.03;;;;;;;13.56;100.00;101229.56;5048603;28;20491;-83
2022/06/13 02:37:55;;;;;;;5.90;1.45;;;;;;;13.95;100.00;101248.97;5051320;28;20143;-86
2022/06/13 02:40:27;;;;;;;4.65;1.30;;;;;;;14.18;100.00;101264.63;5052150;28;20044;-85
2022/06/13 02:43:00;;;;;;;6.20;1.65;;;;;;;13.76;100.00;101270.00;5045654;28;20052;-86
2022/06/13 02:45:43;;;;;;;11.68;2.42;;;;;;;13.70;100.00;101250.03;5050545;28;20049;-86
2022/06/13 02:48:24;;;;;;;8.82;1.92;;;;;;;13.69;100.00;101258.84;5050487;28;20052;-86
2022/06/13 02:51:06;;;;;;;10.38;1.88;;;;;;;13.64;100.00;101234.50;5050874;28;20049;-85
2022/06/13 02:53:55;;;;;;;11.93;2.05;;;;;;;13.43;100.00;101231.00;5050358;28;20155;-86
2022/06/13 02:56:37;;;;;;;11.45;1.98;;;;;;;13.50;100.00;101263.19;5040886;28;20055;-86
2022/06/13 02:59:34;;;;;;;7.93;1.75;;;;;;;13.76;100.00;101256.81;5050275;28;20049;-86
2022/06/13 03:02:04;;;;;;;5.65;1.60;;;;;;;13.70;100.00;101259.69;5051156;28;20434;-86
2022/06/13 03:04:42;;;;;;;10.82;2.05;;;;;;;13.59;100.00;101262.78;5048163;28;20556;-85
2022/06/13 03:07:26;;;;;;;11.52;2.00;;;;;;;13.02;100.00;101237.00;5056778;28;20144;-85
2022/06/13 03:10:01;;;;;;;9.07;1.90;;;;;;;12.95;100.00;101217.13;5054461;28;20048;-86
2022/06/13 03:12:38;;;;;;;9.50;2.00;;;;;;;13.07;100.00;101265.75;5049501;28;20057;-85
2022/06/13 03:15:24;;;;;;;8.90;2.00;;;;;;;12.61;100.00;101201.84;5063511;28;20059;-86
2022/06/13 03:18:08;;;;;;;11.38;2.13;;;;;;;12.62;100.00;101237.69;5056043;28;20076;-86
2022/06/13 03:20:49;;;;;;;8.57;1.77;;;;;;;12.96;100.00;101274.06;5054159;28;20049;-85
2022/06/13 03:23:15;;;;;;;7.38;2.00;;;;;;;12.70;100.00;101259.28;5047024;28;20509;-85
2022/06/13 03:25:59;;;;;;;9.02;1.92;;;;;;;12.91;100.00;101278.63;5068451;28;20044;-85
2022/06/13 03:28:29;;;;;;;5.53;1.48;;;;;;;12.93;100.00;101282.03;5066851;28;20048;-85
2022/06/13 03:31:01;;;;;;;5.47;1.40;;;;;;;12.82;100.00;101281.59;5053977;28;20059;-86
2022/06/13 03:33:40;;;;;;;8.35;2.00;;;;;;;12.63;100.00;101250.78;5045583;28;20044;-85
2022/06/13 03:36:18;;;;;;;13.63;1.88;;;;;;;12.91;100.00;101263.69;5054916;28;20063;-86
2022/06/13 03:38:53;;;;;;;14.38;2.60;;;;;;;12.32;100.00;101233.53;5045411;28;20041;-86
2022/06/13 03:41:26;;;;;;;7.70;1.90;;;;;;;12.59;100.00;101258.81;5053785;28;20071;-86
2022/06/13 03:43:59;;;;;;;4.03;1.30;;;;;;;13.11;100.00;101255.03;5044588;28;20129;-86
2022/06/13 03:46:38;;;;;;;7.25;1.55;;;;;;;13.08;100.00;101247.28;5055571;28;20064;-86
2022/06/13 03:49:25;;;;;;;6.80;1.52;;;;;;;13.09;100.00;101237.63;5053068;28;20041;-85
2022/06/13 03:51:58;;;;;;;5.97;1.70;;;;;;;13.30;100.00;101255.16;5053566;28;20048;-86
2022/06/13 03:54:39;;;;;;;10.27;2.17;;;;;;;13.03;100.00;101275.53;5045018;28;20502;-86
2022/06/13 03:57:16;;;;;;;10.27;2.38;;;;;;;13.27;100.00;101268.41;5055425;28;20392;-85
2022/06/13 03:59:50;;;;;;;9.32;2.33;;;;;;;13.18;100.00;101245.13;5046671;28;20047;-85
2022/06/13 04:02:19;;;;;;;8.55;2.10;;;;;;;13.11;100.00;101225.25;5055295;28;20380;-85
2022/06/13 04:04:50;;;;;;;10.63;2.42;;;;;;;13.39;100.00;101274.16;5058219;28;20049;-86
2022/06/13 04:07:18;;;;;;;8.95;2.45;;;;;;;13.55;100.00;101263.84;5053375;28;20055;-85
2022/06/13 04:09:48;;;;;;;9.93;2.05;;;;;;;13.37;100.00;101266.31;5054381;28;20390;-85
2022/06/13 04:12:34;;;;;;;6.22;1.60;;;;;;;13.48;100.00;101271.13;5067464;28;20051;-85
2022/06/13 04:15:11;;;;;;;10.32;2.30;;;;;;;13.53;100.00;101282.31;5053922;28;20398;-86
2022/06/13 04:18:17;;;;;;;13.52;2.53;;;;;;;13.41;100.00;101272.31;5053231;28;20487;-85
2022/06/13 04:20:55;;;;;;;7.22;1.98;;;;;;;13.59;100.00;101289.09;5024716;28;20056;-85
2022/06/13 04:23:40;;;;;;;10.10;2.45;;;;;;;13.55;100.00;101269.09;5059171;28;20058;-85
2022/06/13 04:26:18;;;;;;;7.15;1.60;;;;;;;13.57;99.94;101259.38;5054823;28;20044;-85
2022/06/13 04:28:49;;;;;;;8.40;1.83;;;;;;;13.29;100.00;101253.41;5053317;28;20407;-85
2022/06/13 04:31:18;;;;;;;13.57;2.25;;;;;;;13.23;100.00;101303.66;5052400;28;20047;-85
2022/06/13 04:33:52;;;;;;;4.93;1.38;;;;;;;13.50;100.00;101289.47;5052347;28;20077;-85
2022/06/13 04:36:21;;;;;;;9.65;1.88;;;;;;;13.28;100.00;101250.88;5056552;28;20040;-86
2022/06/13 04:38:53;;;;;;;8.90;1.98;;;;;;;13.81;99.44;101310.09;5062100;28;20489;-86
2022/06/13 04:41:28;;;;;;;6.25;1.70;;;;;;;13.46;100.00;101273.81;5053206;28;20457;-86
2022/06/13 04:43:58;;;;;;;9.05;1.90;;;;;;;13.73;96.88;101297.28;5047002;28;20698;-86
2022/06/13 04:46:28;;;;;;;7.35;1.67;;;;;;;13.75;97.63;101327.00;5057228;28;20080;-86
2022/06/13 04:49:04;;;;;;;8.70;2.40;;;;;;;13.65;99.74;101323.03;5061693;28;20399;-86
2022/06/13 04:51:38;;;;;;;8.55;2.03;;;;;;;13.46;97.74;101273.81;5059166;28;20415;-86
2022/06/13 04:54:26;;;;;;;7.10;1.55;;;;;;;14.03;96.04;101328.50;5044838;28;20055;-86
2022/06/13 04:56:59;;;;;;;8.63;1.65;;;;;;;13.80;93.44;101261.88;5052367;28;20051;-85
2022/06/13 04:59:28;;;;;;;9.55;2.95;;;;;;;13.22;97.00;101277.41;5051436;28;20041;-84
2022/06/13 05:01:56;;;;;;;7.80;1.83;;;;;;;13.73;95.90;101264.84;5052480;28;20470;-85
2022/06/13 05:04:30;;;;;;;8.75;1.73;;;;;;;13.95;91.69;101299.88;5052032;28;20052;-85
2022/06/13 05:07:00;;;;;;;7.72;1.90;;;;;;;13.83;91.80;101303.88;5065734;28;20454;-85
2022/06/13 05:09:33;;;;;;;8.25;1.80;;;;;;;14.03;91.67;101328.50;5052569;28;20052;-85
2022/06/13 05:12:09;;;;;;;;;;;;;;;14.18;91.35;101326.97;5056123;28;20462;-85
2022/06/13 05:14:42;;;;;;;5.53;1.60;;;;;;;14.12;90.98;101333.34;5048654;28;19927;-85
2022/06/13 05:17:27;;;;;;;10.50;1.90;;;;;;;13.89;90.60;101276.41;5053722;28;20049;-85
2022/06/13 05:20:11;;;;;;;11.27;2.20;;;;;;;14.39;89.95;101333.94;5044927;28;20548;-85
2022/06/13 05:22:50;;;;;;;10.18;1.83;;;;;;;14.24;88.97;101345.16;5037489;28;20049;-85
2022/06/13 05:25:23;;;;;;;7.45;1.45;;;;;;;14.26;89.35;101339.81;5047271;28;20049;-84
2022/06/13 05:27:51;;;;;;;7.28;1.52;;;;;;;14.39;90.56;101349.72;5050661;28;20049;-84
2022/06/13 05:30:17;;;;;;;8.13;1.63;;;;;;;14.09;90.30;101287.88;5050310;28;20075;-82
2022/06/13 05:32:44;;;;;;;7.63;1.75;;;;;;;14.11;92.89;101343.94;5048873;28;20494;-82
2022/06/13 05:35:21;;;;;;;13.00;2.95;;;;;;;14.21;93.23;101316.31;5050857;28;20056;-82
2022/06/13 05:37:51;;;;;;;5.78;1.40;;;;;;;14.50;90.46;101316.78;5050722;28;20056;-82
2022/06/13 05:40:20;;;;;;;12.52;2.08;;;;;;;14.43;89.90;101334.69;5054302;28;20041;-85
2022/06/13 05:42:47;;;;;;;7.82;1.52;;;;;;;14.75;89.99;101327.97;5045139;28;20491;-84
2022/06/13 05:45:16;;;;;;;7.38;1.88;;;;;;;15.00;88.46;101340.03;5051613;28;20045;-83
2022/06/13 05:47:47;;;;;;;7.35;1.67;;;;;;;14.76;90.55;101345.50;5050780;28;20132;-83
2022/06/13 05:50:22;;;;;;;12.02;2.22;;;;;;;15.02;89.11;101340.81;5063755;28;20644;-86
2022/06/13 05:52:50;;;;;;;4.28;1.27;;;;;;;14.67;89.63;101300.25;5042214;28;20475;-84
2022/06/13 05:55:17;;;;;;;10.13;2.83;;;;;;;14.81;88.49;101292.56;5047886;28;20056;-85
2022/06/13 05:57:59;;;;;;;5.68;1.33;;;;;;;15.33;86.85;101308.56;5044633;28;20055;-85
2022/06/13 06:00:30;;;;;;;11.02;2.25;;;;;;;15.00;83.73;101295.22;5050288;28;20132;-86
2022/06/13 06:02:57;;;;;;;12.15;2.17;;;;;;;14.76;85.70;101276.97;5044565;28;20045;-86
2022/06/13 06:05:24;;;;;;;8.10;2.17;;;;;;;15.11;84.06;101321.91;5049222;28;20087;-86
2022/06/13 06:07:50;;;;;;;10.98;2.20;;;;;;;15.37;83.88;101311.91;5048418;28;20497;-83
2022/06/13 06:10:25;;;;;;;10.52;2.47;;;;;;;15.47;81.90;101344.81;5051195;28;20052;-83
2022/06/13 06:12:52;;;;;;;11.20;2.67;;;;;;;15.60;79.69;101326.63;5049156;28;20498;-87
2022/06/13 06:15:18;;;;;;;8.80;1.83;;;;;;;15.61;79.38;101354.72;5064656;28;20048;-86
2022/06/13 06:17:45;;;;;;;11.18;1.90;;;;;;;15.64;78.12;101311.47;5042429;28;20041;-85
2022/06/13 06:20:18;;;;;;;12.15;2.05;;;;;;;15.90;78.83;101345.38;5045570;28;20481;-86
2022/06/13 06:22:46;;;;;;;6.95;1.85;;;;;;;16.49;76.23;101345.03;5047702;28;20045;-86
2022/06/13 06:25:13;;;;;;;10.63;2.33;;;;;;;16.05;77.03;101335.81;5043978;28;20045;-86
2022/06/13 06:27:40;;;;;;;6.53;1.75;;;;;;;16.16;79.28;101343.19;5050423;28;20060;-86
2022/06/13 06:30:07;;;;;;;8.88;1.80;;;;;;;15.94;78.02;101340.81;5045142;28;20056;-85
2022/06/13 06:32:34;;;;;;;11.18;1.88;;;;;;;16.20;77.00;101302.50;5062592;28;20045;-86
2022/06/13 06:35:01;;;;;;;6.28;1.55;;;;;;;16.27;75.49;101295.97;5063765;28;20392;-85
2022/06/13 06:37:28;;;;;;;5.65;1.50;;;;;;;16.61;74.91;101325.88;5041326;28;20092;-86
2022/06/13 06:39:57;;;;;;;9.40;1.95;;;;;;;16.10;78.46;101309.19;5048917;28;20040;-86
2022/06/13 06:42:24;;;;;;;12.35;2.33;;;;;;;15.52;80.76;101297.09;5050668;28;20052;-86
2022/06/13 06:45:11;;;;;;;7.00;1.50;;;;;;;16.39;81.47;101357.84;5052670;28;20064;-86
2022/06/13 06:47:39;;;;;;;8.80;2.13;;;;;;;16.42;78.95;101341.84;5048460;28;20055;-85
2022/06/13 06:50:10;;;;;;;5.40;1.40;;;;;;;16.33;77.45;101334.41;5060615;28;20447;-85
2022/06/13 06:52:38;;;;;;;14.45;3.15;;;;;;;16.05;78.12;101343.75;5048181;28;20088;-86
2022/06/13 07:00:39;;;;;;;9.32;2.08;;;;;;;16.11;80.10;101369.88;5048137;28;20049;-84
2022/06/13 07:03:05;;;;;;;9.23;2.00;;;;;;;16.42;78.36;101326.00;5043793;28;20647;-83
2022/06/13 07:05:32;;;;;;;8.05;1.50;;;;;;;16.43;79.42;101342.69;5054273;28;20715;-84
2022/06/13 07:07:59;;;;;;;11.27;2.38;;;;;;;16.67;79.00;101332.63;5054295;28;20048;-84
2022/06/13 07:10:26;;;;;;;10.63;2.00;;;;;;;16.64;80.22;101330.13;5051789;28;20060;-84
2022/06/13 07:12:52;;;;;;;9.43;2.40;;;;;;;16.62;78.09;101329.38;5042926;28;20503;-85
2022/06/13 07:15:19;;;;;;;7.63;1.73;;;;;;;16.96;77.89;101354.84;5064127;28;20071;-84
2022/06/13 07:17:46;;;;;;;13.07;2.40;;;;;;;16.67;78.32;101343.19;5072808;28;20056;-84
2022/06/13 07:20:14;;;;;;;16.02;3.38;;;;;;;16.51;79.45;101366.94;5054629;28;20480;-84
2022/06/13 07:22:49;;;;;;;8.50;1.73;;;;;;;17.89;74.83;101361.16;5062217;28;20059;-84
2022/06/13 07:25:22;;;;;;;7.80;1.83;;;;;;;19.02;73.17;101357.03;5051117;28;20483;-84
2022/06/13 07:27:50;;;;;;;8.73;2.27;;;;;;;19.46;68.66;101354.16;5058822;28;20809;-84
2022/06/13 07:30:21;;;;;;;6.75;1.55;;;;;;;19.13;67.59;101339.44;5074321;28;20392;-84
2022/06/13 07:32:50;;;;;;;10.15;2.08;;;;;;;18.89;64.21;101349.84;5051781;28;20044;-85
2022/06/13 07:35:20;;;;;;;6.30;1.70;;;;;;;18.46;65.90;101355.09;5054006;28;20063;-84
2022/06/13 07:38:30;;;;;;;9.10;1.73;;;;;;;18.73;65.45;101363.19;5052600;28;20051;-83
2022/06/13 07:40:37;;;;;;;8.68;1.90;;;;;;;18.25;64.22;101365.19;5040986;28;20048;-84
2022/06/13 07:43:06;;;;;;;6.20;1.50;;;;;;;18.19;63.54;101362.94;5042154;28;20107;-83
2022/06/13 07:45:39;;;;;;;7.60;1.55;;;;;;;18.30;63.80;101354.34;5064375;28;20049;-84
2022/06/13 07:48:19;;;;;;;6.53;1.42;;;;;;;18.54;62.97;101362.59;5049447;28;20124;-89
2022/06/13 07:50:47;;;;;;;5.07;1.30;;;;;;;18.08;64.41;101357.41;5044454;28;20041;-84
2022/06/13 07:53:14;;;;;;;9.13;2.05;;;;;;;18.09;64.27;101356.47;5049058;28;20044;-85
2022/06/13 07:55:40;;;;;;;12.18;1.70;;;;;;;18.06;64.09;101340.75;5045553;28;20045;-88
2022/06/13 07:58:17;;;;;;;7.63;1.83;;;;;;;18.09;63.15;101370.56;5052031;28;20048;-86
2022/06/13 08:00:48;;;;;;;7.82;1.42;;;;;;;18.57;63.24;101367.69;5045314;28;20045;-85
2022/06/13 08:03:25;;;;;;;7.72;1.60;;;;;;;19.13;61.36;101363.34;5051025;28;20049;-85
2022/06/13 08:05:52;;;;;;;8.73;1.70;;;;;;;19.57;59.71;101379.19;5043175;28;20400;-85
2022/06/13 08:08:19;;;;;;;6.32;1.52;;;;;;;20.32;58.59;101378.63;5052281;28;20053;-84
2022/06/13 08:10:48;;;;;;;14.18;2.10;;;;;;;19.47;56.68;101365.63;5050555;28;20542;-86
2022/06/13 08:13:18;;;;;;;7.72;1.70;;;;;;;18.95;56.78;101367.16;5048479;28;20052;-85
2022/06/13 08:15:45;;;;;;;10.10;2.25;;;;;;;18.79;55.57;101386.66;5066205;28;20128;-84
2022/06/13 08:18:13;;;;;;;7.68;1.83;;;;;;;18.92;56.22;101389.44;5053978;28;20057;-85
2022/06/13 08:20:48;;;;;;;9.40;1.52;;;;;;;18.94;56.73;101392.00;5043910;28;20044;-85
2022/06/13 08:23:16;;;;;;;6.47;1.50;;;;;;;18.79;56.59;101391.97;5049805;28;20376;-85
2022/06/13 08:25:43;;;;;;;7.03;1.67;;;;;;;18.96;56.86;101401.56;5052239;28;20048;-85
2022/06/13 08:28:11;;;;;;;8.35;1.73;;;;;;;18.57;57.56;101399.53;5052062;28;20055;-85
2022/06/13 08:30:51;;;;;;;9.27;1.77;;;;;;;18.36;58.32;101404.31;5051465;28;20047;-85
2022/06/13 08:33:19;;;;;;;7.40;1.55;;;;;;;18.33;58.65;101391.28;5051622;28;20040;-85
2022/06/13 08:35:47;;;;;;;10.15;2.17;;;;;;;18.72;58.56;101395.94;5052224;28;20052;-84
2022/06/13 08:38:15;;;;;;;7.65;1.45;;;;;;;18.40;59.29;101374.06;5052033;28;20055;-89
2022/06/13 08:40:45;;;;;;;12.27;2.65;;;;;;;18.44;59.89;101396.78;5051554;28;20127;-85
2022/06/13 08:43:29;;;;;;;10.63;1.73;;;;;;;18.36;58.85;101401.66;5049716;28;20044;-84
2022/06/13 08:46:06;;;;;;;8.68;1.67;;;;;;;18.26;60.06;101382.81;5050345;28;20394;-84
2022/06/13 08:48:43;;;;;;;4.72;1.45;;;;;;;18.24;60.63;101403.28;5067169;28;20079;-85
2022/06/13 08:51:19;;;;;;;7.65;1.63;;;;;;;18.08;60.93;101389.19;5050484;28;20053;-85
2022/06/13 08:53:55;;;;;;;8.70;1.85;;;;;;;18.01;61.52;101402.81;5042542;28;20051;-85
2022/06/13 08:56:27;;;;;;;9.07;2.70;;;;;;;18.09;62.16;101405.00;5071533;28;20048;-85
2022/06/13 08:59:22;;;;;;;7.38;1.63;;;;;;;18.02;62.43;101398.38;5052019;28;20048;-85
2022/06/13 09:02:15;;;;;;;7.03;1.92;;;;;;;18.11;62.94;101405.78;5048609;28;20052;-85
2022/06/13 09:04:45;;;;;;;8.88;2.30;;;;;;;18.14;62.64;101392.34;5043112;28;20136;-84
2022/06/13 09:07:18;;;;;;;9.55;1.90;;;;;;;18.25;62.53;101396.16;5051215;28;20052;-85
2022/06/13 09:09:51;;;;;;;5.95;1.50;;;;;;;18.11;62.66;101362.53;5050912;28;20041;-85
2022/06/13 09:12:28;;;;;;;4.55;1.30;;;;;;;18.37;63.56;101401.59;5045075;28;20076;-85
2022/06/13 09:14:54;;;;;;;4.20;1.15;;;;;;;18.82;62.95;101396.25;5054546;28;20040;-85
2022/06/13 09:17:28;;;;;;;9.25;2.10;;;;;;;18.07;63.51;101384.84;5058702;28;20044;-85
2022/06/13 09:20:12;;;;;;;8.88;1.73;;;;;;;18.39;63.62;101391.72;5055967;28;20373;-85
2022/06/13 09:23:12;;;;;;;10.95;1.80;;;;;;;18.13;65.05;101395.09;5065049;28;20045;-85
2022/06/13 09:25:48;;;;;;;5.45;1.70;;;;;;;18.43;65.01;101404.81;5065592;28;20122;-86
2022/06/13 09:28:26;;;;;;;8.48;1.50;;;;;;;18.78;64.22;101400.00;5064441;28;20056;-82
2022/06/13 09:31:03;;;;;;;5.78;1.30;;;;;;;18.94;63.99;101397.28;5045437;28;20534;-85
2022/06/13 09:33:33;;;;;;;4.38;1.30;;;;;;;18.78;64.39;101394.72;5047626;28;20144;-85
2022/06/13 09:36:10;;;;;;;6.07;1.48;;;;;;;18.62;64.84;101401.91;5050546;28;20055;-85
2022/06/13 09:38:45;;;;;;;6.43;1.40;;;;;;;18.77;65.12;101387.72;5051212;28;20498;-85
2022/06/13 09:41:36;;;;;;;6.70;1.80;;;;;;;18.82;65.44;101379.47;5066572;28;20045;-84
2022/06/13 09:44:41;;;;;;;7.45;1.70;;;;;;;19.07;64.49;101392.06;5049742;28;20044;-85
2022/06/13 09:47:26;;;;;;;8.00;1.90;;;;;;;19.02;65.14;101389.72;5025330;28;20045;-84
2022/06/13 09:50:29;;;;;;;7.43;1.75;;;;;;;19.26;64.61;101366.06;5050138;28;20044;-85
2022/06/13 09:53:34;;;;;;;5.20;1.30;;;;;;;19.96;63.93;101386.34;5040429;28;20434;-85
2022/06/13 09:56:30;;;;;;;7.97;1.40;;;;;;;19.07;63.10;101376.13;5050350;28;20403;-85
2022/06/13 09:59:35;;;;;;;7.15;1.40;;;;;;;19.99;62.24;101386.13;5049991;28;20049;-85
2022/06/13 10:02:13;;;;;;;6.43;1.48;;;;;;;19.91;62.08;101378.66;5011955;28;20045;-85
2022/06/13 10:05:26;;;;;;;4.43;1.40;;;;;;;19.62;61.14;101379.69;5011904;28;20087;-85
2022/06/13 10:08:17;;;;;;;6.75;1.77;;;;;;;19.66;61.64;101365.28;5058705;28;20724;-85
2022/06/13 10:11:35;;;;;;;8.05;1.80;;;;;;;19.82;60.45;101387.25;5049315;28;20064;-85
2022/06/13 10:14:27;;;;;;;6.13;1.50;;;;;;;19.29;62.85;101388.91;5069202;28;20057;-84
2022/06/13 10:17:25;;;;;;;5.67;1.40;;;;;;;19.41;63.24;101390.78;5074496;28;20053;-85
2022/06/13 10:20:03;;;;;;;5.93;1.27;;;;;;;19.56;62.79;101359.72;5038688;28;20294;-87
2022/06/13 10:22:49;;;;;;;6.88;1.20;;;;;;;19.45;62.84;101356.91;5048820;28;20069;-87
2022/06/13 10:25:45;;;;;;;7.03;1.58;;;;;;;19.72;61.34;101388.78;5045172;28;20041;-86
2022/06/13 10:28:37;;;;;;;11.05;2.05;;;;;;;19.11;63.16;101390.94;5048984;28;20049;-87
2022/06/13 10:31:24;;;;;;;6.00;1.40;;;;;;;19.77;63.42;101397.31;5050042;28;20056;-86
2022/06/13 10:34:03;;;;;;;8.93;2.05;;;;;;;19.06;62.22;101390.38;5046160;28;20049;-87
2022/06/13 10:37:04;;;;;;;7.47;1.67;;;;;;;19.24;64.51;101389.19;5048111;28;20384;-87
2022/06/13 10:39:31;;;;;;;8.48;1.80;;;;;;;19.07;63.45;101390.28;5045021;28;20053;-87
2022/06/13 10:42:09;;;;;;;9.98;1.80;;;;;;;19.88;62.81;101386.84;5041252;28;20099;-86
2022/06/13 10:44:38;;;;;;;5.63;1.55;;;;;;;19.96;60.60;101380.19;5050272;28;20471;-86
2022/06/13 10:47:19;;;;;;;8.75;1.80;;;;;;;20.04;61.63;101373.41;5052592;28;20053;-87
2022/06/13 10:49:56;;;;;;;5.80;1.42;;;;;;;20.40;60.03;101370.97;5045043;28;20810;-87
2022/06/13 10:52:30;;;;;;;7.72;1.63;;;;;;;21.01;59.27;101371.16;5045794;28;20041;-87
2022/06/13 10:55:03;;;;;;;6.30;1.60;;;;;;;20.89;59.41;101362.22;5048749;28;20044;-87
2022/06/13 10:57:32;;;;;;;4.38;1.00;;;;;;;21.14;59.35;101350.69;5055000;28;20045;-87
2022/06/13 11:00:21;;;;;;;8.25;1.80;;;;;;;21.23;59.51;101357.16;5053124;28;20067;-87
2022/06/13 11:02:51;;;;;;;4.82;1.40;;;;;;;21.03;61.80;101367.44;5051163;28;20127;-87
2022/06/13 11:05:23;;;;;;;7.45;1.67;;;;;;;20.90;61.91;101387.91;5053303;28;20068;-87
2022/06/13 11:07:58;;;;;;;9.00;1.70;;;;;;;19.66;66.81;101392.69;5053981;28;20075;-87
2022/06/13 11:10:35;;;;;;;7.18;1.77;;;;;;;20.12;66.90;101369.38;5047204;28;20052;-87
2022/06/13 11:13:13;;;;;;;8.10;1.70;;;;;;;20.66;66.51;101377.16;5051191;28;20044;-87
2022/06/13 11:24:30;;;;;;;5.70;1.60;;;;;;;20.45;66.05;101376.81;5055221;28;20082;-86
2022/06/13 11:29:42;;;;;;;5.45;1.42;;;;;;;19.93;68.90;101354.63;5054028;28;20049;-87
2022/06/13 11:32:21;;;;;;;6.65;1.67;;;;;;;19.66;74.57;101371.44;5052919;28;20041;-87
2022/06/13 11:34:48;;;;;;;6.38;1.60;;;;;;;19.97;74.23;101360.59;5058431;28;20054;-87
2022/06/13 11:37:23;;;;;;;8.70;2.30;;;;;;;19.28;77.15;101350.91;5061435;28;20049;-87
2022/06/13 11:39:51;;;;;;;9.98;2.10;;;;;;;19.53;78.62;101371.41;5056743;28;20462;-87
2022/06/13 11:42:37;;;;;;;7.47;1.70;;;;;;;19.94;78.05;101382.94;5061706;28;20060;-87
2022/06/13 11:45:22;;;;;;;10.35;2.22;;;;;;;19.47;78.99;101325.78;5059394;28;20196;-87
2022/06/13 11:47:51;;;;;;;8.05;1.48;;;;;;;19.27;82.42;101341.22;5057613;28;20457;-87
2022/06/13 11:50:30;;;;;;;9.23;2.30;;;;;;;18.91;86.75;101362.97;5057387;28;20052;-87
2022/06/13 11:55:54;;;;;;;9.43;1.95;;;;;;;18.93;93.23;101382.34;5064363;28;20084;-87
2022/06/13 11:58:25;;;;;;;7.95;1.75;;;;;;;18.93;91.57;101371.72;5070475;28;20717;-86
2022/06/13 12:00:54;;;;;;;6.47;1.90;;;;;;;19.43;89.50;101367.63;5057903;28;20045;-86
2022/06/13 12:03:24;;;;;;;9.90;2.00;;;;;;;18.79;92.50;101349.53;5060067;28;20057;-87
2022/06/13 12:06:06;;;;;;;8.48;1.88;;;;;;;18.90;95.56;101361.28;5065435;28;20047;-87
2022/06/13 12:08:33;;;;;;;9.32;2.17;;;;;;;18.96;97.65;101364.44;5055373;28;20041;-87
2022/06/13 12:11:02;;;;;;;11.25;1.95;;;;;;;19.42;94.97;101370.38;5055060;28;20048;-87
2022/06/13 12:13:39;;;;;;;6.47;1.42;;;;;;;19.42;93.84;101365.06;5045063;28;20057;-87
2022/06/13 12:16:34;;;;;;;5.13;1.27;;;;;;;19.81;95.01;101371.41;5060889;28;20055;-86
2022/06/13 12:19:20;;;;;;;5.90;1.35;;;;;;;19.55;98.78;101373.97;5045499;28;20056;-87
2022/06/13 12:21:49;;;;;;;6.72;1.52;;;;;;;19.17;100.00;101353.38;5047850;28;21665;-87